Time;durP1;ratioP1;P1;durP2;ratioP2;P2;SDS_P1;SDS_P2;PMS_P1;PMS_P2;Temp;Humidity;BMP_temperature;BMP_pressure;BME280_temperature;BME280_humidity;BME280_pressure;Samples;Min_cycle;Max_cycle;Signal;HPM_P1;HPM_P2
2023/12/18 00:00:54;;;;;;;36.28;24.40;;;6.70;99.90;;;;;;5055192;27;20036;-77
2023/12/18 00:03:20;;;;;;;32.45;22.60;;;6.70;99.90;;;;;;5070689;28;20029;-75
2023/12/18 00:05:47;;;;;;;40.40;24.80;;;6.70;99.90;;;;;;5038606;27;20043;-79
2023/12/18 00:08:13;;;;;;;34.88;22.42;;;6.70;99.90;;;;;;5058117;28;20370;-79
2023/12/18 00:10:40;;;;;;;35.70;20.60;;;6.70;99.90;;;;;;5072507;28;20113;-75
2023/12/18 00:13:06;;;;;;;39.35;25.15;;;6.70;99.90;;;;;;5072117;28;20346;-78
2023/12/18 00:15:32;;;;;;;41.65;23.27;;;6.70;99.90;;;;;;5053827;28;20051;-81
2023/12/18 00:17:58;;;;;;;40.25;25.27;;;6.70;99.90;;;;;;5068578;28;20047;-81
2023/12/18 00:20:25;;;;;;;36.08;24.45;;;6.70;99.90;;;;;;5053774;28;20028;-77
2023/12/18 00:22:51;;;;;;;32.47;22.42;;;6.70;99.90;;;;;;5071553;28;20583;-78
2023/12/18 00:25:17;;;;;;;41.17;23.35;;;6.70;99.90;;;;;;5060818;28;20035;-79
2023/12/18 00:27:46;;;;;;;46.17;24.65;;;6.70;99.90;;;;;;5038148;28;20046;-78
2023/12/18 00:30:13;;;;;;;36.42;23.50;;;6.70;99.90;;;;;;5090908;27;20342;-79
2023/12/18 00:32:39;;;;;;;36.45;22.33;;;6.70;99.90;;;;;;5070102;28;20035;-75
2023/12/18 00:35:05;;;;;;;34.22;22.40;;;6.70;99.90;;;;;;5084742;28;20470;-80
2023/12/18 00:37:32;;;;;;;38.05;23.48;;;6.70;99.90;;;;;;5036991;28;20060;-80
2023/12/18 00:39:58;;;;;;;35.67;20.83;;;6.70;99.90;;;;;;5089511;28;20039;-77
2023/12/18 00:42:25;;;;;;;29.92;20.60;;;6.70;99.90;;;;;;5070287;28;20043;-74
2023/12/18 00:44:51;;;;;;;33.42;20.73;;;6.70;99.90;;;;;;5087816;28;20046;-81
2023/12/18 00:47:18;;;;;;;35.97;23.15;;;6.70;99.90;;;;;;5070158;28;20485;-80
2023/12/18 00:49:44;;;;;;;32.03;21.55;;;6.70;99.90;;;;;;5088607;28;20050;-81
2023/12/18 00:52:11;;;;;;;29.35;21.50;;;6.70;99.90;;;;;;5089551;28;20024;-81
2023/12/18 00:54:37;;;;;;;29.17;21.42;;;6.70;99.90;;;;;;5088668;28;20486;-81
2023/12/18 00:57:03;;;;;;;32.50;20.02;;;6.80;99.90;;;;;;5067828;28;20034;-79
2023/12/18 00:59:30;;;;;;;29.67;19.75;;;6.70;99.90;;;;;;5053304;28;20918;-82
2023/12/18 01:01:56;;;;;;;33.50;22.42;;;6.80;99.90;;;;;;5086850;28;20042;-80
2023/12/18 01:04:22;;;;;;;30.05;20.90;;;6.80;99.90;;;;;;5103008;27;20035;-79
2023/12/18 01:06:49;;;;;;;36.75;21.77;;;6.80;99.90;;;;;;5092774;27;20386;-81
2023/12/18 01:09:15;;;;;;;41.45;23.27;;;6.80;99.90;;;;;;5074230;28;20035;-79
2023/12/18 01:11:42;;;;;;;33.47;21.88;;;6.80;99.90;;;;;;5091165;27;20496;-80
2023/12/18 01:14:09;;;;;;;31.08;19.20;;;6.80;99.90;;;;;;5074517;27;20489;-77
2023/12/18 01:16:35;;;;;;;32.22;21.08;;;6.80;99.90;;;;;;5073257;28;20032;-79
2023/12/18 01:19:02;;;;;;;42.17;23.88;;;6.80;99.90;;;;;;5074073;28;20031;-79
2023/12/18 01:21:28;;;;;;;33.42;23.30;;;6.80;99.90;;;;;;5059029;27;20038;-79
2023/12/18 01:23:55;;;;;;;30.75;20.30;;;6.80;99.90;;;;;;5077761;28;20046;-74
2023/12/18 01:26:21;;;;;;;35.13;23.50;;;6.80;99.90;;;;;;5075252;27;20028;-79
2023/12/18 01:28:47;;;;;;;34.28;21.65;;;6.80;99.90;;;;;;5074398;28;20493;-80
2023/12/18 01:31:24;;;;;;;35.65;23.80;;;6.80;99.90;;;;;;5059215;28;20362;-81
2023/12/18 01:33:53;;;;;;;28.15;20.50;;;6.80;99.90;;;;;;5075141;27;20020;-78
2023/12/18 01:36:19;;;;;;;32.45;21.55;;;6.80;99.90;;;;;;5092789;27;20038;-80
2023/12/18 01:38:46;;;;;;;34.33;21.10;;;6.80;99.90;;;;;;5091785;28;20533;-78
2023/12/18 01:41:12;;;;;;;32.88;21.30;;;6.80;99.90;;;;;;5073841;27;20016;-79
2023/12/18 01:43:38;;;;;;;34.33;21.83;;;6.80;99.90;;;;;;5091345;27;20054;-81
2023/12/18 01:46:05;;;;;;;32.40;21.95;;;6.80;99.90;;;;;;5069709;28;20051;-79
2023/12/18 01:48:32;;;;;;;34.97;23.17;;;6.80;99.90;;;;;;5075492;27;20382;-78
2023/12/18 01:50:59;;;;;;;36.75;23.70;;;6.80;99.90;;;;;;5073958;27;20498;-77
2023/12/18 01:53:30;;;;;;;29.83;21.15;;;6.80;99.90;;;;;;5109019;27;20369;-81
2023/12/18 01:55:58;;;;;;;37.45;23.50;;;6.80;99.90;;;;;;5057853;28;21047;-77
2023/12/18 01:58:25;;;;;;;43.33;24.85;;;6.80;99.90;;;;;;5075223;27;20063;-80
2023/12/18 02:00:52;;;;;;;40.67;23.90;;;6.90;99.90;;;;;;5071257;28;20378;-80
2023/12/18 02:03:19;;;;;;;39.20;24.42;;;6.90;99.90;;;;;;5073534;27;20028;-80
2023/12/18 02:05:46;;;;;;;35.33;23.38;;;6.90;99.90;;;;;;5063942;27;20527;-76
2023/12/18 02:08:13;;;;;;;34.58;22.80;;;6.90;99.90;;;;;;5077400;28;20044;-76
2023/12/18 02:10:40;;;;;;;37.28;21.30;;;6.90;99.90;;;;;;5081063;28;20039;-77
2023/12/18 02:13:06;;;;;;;37.85;26.23;;;6.90;99.90;;;;;;5059613;28;20486;-81
2023/12/18 02:15:32;;;;;;;30.92;22.08;;;6.90;99.90;;;;;;5057179;28;20027;-78
2023/12/18 02:17:59;;;;;;;34.70;22.95;;;6.90;99.90;;;;;;5056693;27;20042;-80
2023/12/18 02:20:25;;;;;;;39.05;24.38;;;6.90;99.90;;;;;;5073590;27;20036;-80
2023/12/18 02:22:52;;;;;;;33.05;23.17;;;6.90;99.90;;;;;;5074374;27;20374;-79
2023/12/18 02:25:20;;;;;;;28.52;21.38;;;6.90;99.90;;;;;;5054095;28;20047;-74
2023/12/18 02:27:50;;;;;;;30.65;20.70;;;6.90;99.90;;;;;;5071741;28;20386;-80
2023/12/18 02:30:19;;;;;;;29.08;21.63;;;6.90;99.90;;;;;;5069370;28;20483;-79
2023/12/18 02:32:46;;;;;;;30.38;21.73;;;6.90;99.90;;;;;;5089249;27;20335;-77
2023/12/18 02:35:12;;;;;;;36.65;20.92;;;7.00;99.90;;;;;;5073823;28;20393;-77
2023/12/18 02:37:39;;;;;;;29.95;21.08;;;7.00;99.90;;;;;;5090448;27;20040;-78
2023/12/18 02:40:06;;;;;;;33.97;23.20;;;7.00;99.90;;;;;;5072961;28;20043;-75
2023/12/18 02:42:32;;;;;;;38.83;22.70;;;7.00;99.90;;;;;;5072240;28;20024;-74
2023/12/18 02:45:00;;;;;;;37.03;22.25;;;7.00;99.90;;;;;;5071231;27;20032;-78
2023/12/18 02:47:27;;;;;;;33.35;23.23;;;7.00;99.90;;;;;;5072583;27;20165;-78
2023/12/18 02:49:53;;;;;;;34.05;22.23;;;7.00;99.90;;;;;;5059299;28;20049;-81
2023/12/18 02:52:19;;;;;;;32.33;22.10;;;7.00;99.90;;;;;;5072187;28;20039;-77
2023/12/18 02:54:46;;;;;;;33.97;23.33;;;7.00;99.90;;;;;;5092960;27;20397;-80
2023/12/18 02:57:12;;;;;;;33.22;24.00;;;7.00;99.90;;;;;;5074379;27;20023;-78
2023/12/18 02:59:38;;;;;;;32.75;21.80;;;7.00;99.90;;;;;;5072452;28;20308;-77
2023/12/18 03:02:05;;;;;;;26.67;20.67;;;7.00;99.90;;;;;;5091208;27;20016;-80
2023/12/18 03:04:31;;;;;;;42.13;26.45;;;7.00;99.90;;;;;;5045938;27;20359;-76
2023/12/18 03:06:58;;;;;;;37.15;24.88;;;7.00;99.90;;;;;;5071236;28;22386;-79
2023/12/18 03:09:24;;;;;;;30.80;22.25;;;7.00;99.90;;;;;;5057427;27;20024;-80
2023/12/18 03:11:50;;;;;;;33.90;24.13;;;7.00;99.90;;;;;;5092131;27;20463;-76
2023/12/18 03:14:17;;;;;;;45.55;27.10;;;7.00;99.90;;;;;;5072545;28;20034;-80
2023/12/18 03:16:43;;;;;;;40.65;24.40;;;7.00;99.90;;;;;;5089228;27;20032;-77
2023/12/18 03:19:10;;;;;;;39.42;27.17;;;7.00;99.90;;;;;;5107903;27;20058;-80
2023/12/18 03:21:36;;;;;;;40.50;27.35;;;7.00;99.90;;;;;;5041066;28;20032;-79
2023/12/18 03:24:03;;;;;;;34.67;23.67;;;7.00;99.90;;;;;;5093750;27;20016;-77
2023/12/18 03:26:29;;;;;;;37.38;26.10;;;7.00;99.90;;;;;;5073139;27;20024;-79
2023/12/18 03:28:55;;;;;;;42.63;24.70;;;7.00;99.90;;;;;;5073073;28;20039;-79
2023/12/18 03:31:21;;;;;;;36.05;24.05;;;7.10;99.90;;;;;;5056475;28;20371;-79
2023/12/18 03:33:48;;;;;;;36.75;22.15;;;7.10;99.90;;;;;;5090499;27;20721;-80
2023/12/18 03:36:14;;;;;;;35.33;23.90;;;7.10;99.90;;;;;;5073744;28;20035;-78
2023/12/18 03:38:40;;;;;;;39.55;25.02;;;7.10;99.90;;;;;;5074637;28;20482;-79
2023/12/18 03:41:07;;;;;;;46.05;27.35;;;7.10;99.90;;;;;;5072412;28;20152;-79
2023/12/18 03:43:33;;;;;;;31.88;23.65;;;7.10;99.90;;;;;;5090082;27;20050;-79
2023/12/18 03:46:00;;;;;;;35.38;23.20;;;7.10;99.90;;;;;;5039298;28;20035;-79
2023/12/18 03:48:26;;;;;;;39.53;25.45;;;7.10;99.90;;;;;;5074582;28;20026;-79
2023/12/18 03:50:52;;;;;;;34.53;24.42;;;7.10;99.90;;;;;;5073079;28;20386;-79
2023/12/18 03:53:18;;;;;;;39.65;24.27;;;7.20;99.90;;;;;;5073411;27;20023;-79
2023/12/18 03:55:45;;;;;;;41.22;28.13;;;7.20;99.90;;;;;;5092429;27;20039;-75
2023/12/18 03:58:11;;;;;;;40.40;25.25;;;7.10;99.90;;;;;;5054523;28;20381;-79
2023/12/18 04:00:37;;;;;;;40.00;26.95;;;7.20;99.90;;;;;;5058276;27;20469;-78
2023/12/18 04:03:04;;;;;;;42.83;25.27;;;7.20;99.90;;;;;;5074121;28;20031;-79
2023/12/18 04:05:31;;;;;;;40.08;27.00;;;7.20;99.90;;;;;;5074851;27;20393;-75
2023/12/18 04:07:57;;;;;;;41.55;26.70;;;7.20;99.90;;;;;;5073538;27;20038;-79
2023/12/18 04:10:23;;;;;;;51.45;28.10;;;7.10;99.90;;;;;;5072232;28;20016;-79
2023/12/18 04:12:51;;;;;;;37.08;24.70;;;7.10;99.90;;;;;;5074055;28;20035;-76
2023/12/18 04:15:17;;;;;;;43.00;26.38;;;7.20;99.90;;;;;;5070447;28;20016;-78
2023/12/18 04:17:43;;;;;;;40.30;26.02;;;7.20;99.90;;;;;;5089515;27;20036;-78
2023/12/18 04:20:10;;;;;;;36.28;25.85;;;7.20;99.90;;;;;;5046976;27;20359;-79
2023/12/18 04:22:36;;;;;;;40.40;25.08;;;7.10;99.90;;;;;;5055445;27;20466;-77
2023/12/18 04:25:03;;;;;;;44.92;26.65;;;7.20;99.90;;;;;;5087975;27;20034;-80
2023/12/18 04:27:29;;;;;;;38.08;25.83;;;7.10;99.90;;;;;;5072988;28;20051;-79
2023/12/18 04:29:55;;;;;;;37.90;26.02;;;7.20;99.90;;;;;;5091297;27;21689;-75
2023/12/18 04:32:22;;;;;;;42.03;26.60;;;7.20;99.90;;;;;;5056978;28;20891;-75
2023/12/18 04:34:48;;;;;;;42.90;27.38;;;7.20;99.90;;;;;;5087149;27;20036;-77
2023/12/18 04:37:14;;;;;;;46.08;30.02;;;7.20;99.90;;;;;;5069464;28;20451;-75
2023/12/18 04:39:41;;;;;;;44.70;27.58;;;7.20;99.90;;;;;;5070430;28;20037;-78
2023/12/18 04:42:08;;;;;;;43.30;27.35;;;7.20;99.90;;;;;;5089930;27;20028;-77
2023/12/18 04:44:34;;;;;;;40.83;26.90;;;7.20;99.90;;;;;;5054092;28;20474;-79
2023/12/18 04:47:01;;;;;;;39.65;25.55;;;7.20;99.90;;;;;;5089016;27;20027;-79
2023/12/18 04:49:27;;;;;;;42.33;26.63;;;7.10;99.90;;;;;;5089432;28;20063;-78
2023/12/18 04:51:53;;;;;;;39.70;26.48;;;7.20;99.90;;;;;;5072156;28;20042;-76
2023/12/18 04:54:20;;;;;;;43.13;25.52;;;7.20;99.90;;;;;;5090770;28;20031;-78
2023/12/18 04:56:46;;;;;;;44.50;29.00;;;7.20;99.90;;;;;;5070591;28;20039;-79
2023/12/18 04:59:13;;;;;;;46.58;28.40;;;7.20;99.90;;;;;;5044834;28;20031;-76
2023/12/18 05:01:40;;;;;;;41.60;26.90;;;7.20;99.90;;;;;;5053738;28;20427;-79
2023/12/18 05:04:06;;;;;;;45.33;27.30;;;7.20;99.90;;;;;;5052377;28;20055;-78
2023/12/18 05:06:32;;;;;;;47.92;28.27;;;7.20;99.90;;;;;;5090083;28;20031;-80
2023/12/18 05:08:59;;;;;;;42.60;27.20;;;7.20;99.90;;;;;;5070354;28;20051;-76
2023/12/18 05:11:25;;;;;;;40.20;27.23;;;7.20;99.90;;;;;;5044250;28;20046;-74
2023/12/18 05:13:52;;;;;;;46.05;25.98;;;7.20;99.90;;;;;;5072667;28;20981;-79
2023/12/18 05:16:18;;;;;;;39.90;26.67;;;7.20;99.90;;;;;;5090257;28;20030;-80
2023/12/18 05:18:45;;;;;;;39.15;26.77;;;7.20;99.90;;;;;;5073278;28;20039;-78
2023/12/18 05:21:12;;;;;;;39.28;25.73;;;7.20;99.90;;;;;;5054405;28;20023;-79
2023/12/18 05:23:39;;;;;;;35.85;24.08;;;7.20;99.90;;;;;;5091170;28;20049;-77
2023/12/18 05:26:06;;;;;;;43.03;27.60;;;7.20;99.90;;;;;;5073877;28;20034;-77
2023/12/18 05:28:32;;;;;;;45.90;27.75;;;7.20;99.90;;;;;;5055624;28;20470;-79
2023/12/18 05:30:58;;;;;;;49.50;28.73;;;7.20;99.90;;;;;;5069167;28;20024;-73
2023/12/18 05:33:25;;;;;;;43.90;28.15;;;7.20;99.90;;;;;;5073825;28;20039;-77
2023/12/18 05:35:51;;;;;;;40.08;25.52;;;7.20;99.90;;;;;;5070884;28;20797;-79
2023/12/18 05:38:17;;;;;;;41.15;26.30;;;7.20;99.90;;;;;;5057132;28;20405;-76
2023/12/18 05:40:44;;;;;;;44.22;29.05;;;7.20;99.90;;;;;;5090744;28;20028;-79
2023/12/18 05:43:10;;;;;;;48.05;30.27;;;7.20;99.90;;;;;;5070738;28;20023;-73
2023/12/18 05:45:36;;;;;;;39.30;26.50;;;7.20;99.90;;;;;;5070009;28;20367;-78
2023/12/18 05:48:03;;;;;;;42.25;27.80;;;7.20;99.90;;;;;;5057127;28;20409;-79
2023/12/18 05:50:29;;;;;;;47.85;29.90;;;7.20;99.90;;;;;;5072095;28;20016;-79
2023/12/18 05:52:56;;;;;;;49.35;31.30;;;7.20;99.90;;;;;;5059819;27;20081;-78
2023/12/18 05:55:23;;;;;;;43.00;28.90;;;7.20;99.90;;;;;;5077717;27;20031;-75
2023/12/18 05:57:49;;;;;;;46.53;31.75;;;7.20;99.90;;;;;;5074650;28;20039;-73
2023/12/18 06:00:17;;;;;;;46.33;29.40;;;7.20;99.90;;;;;;5094990;27;20039;-73
2023/12/18 06:02:44;;;;;;;42.70;29.73;;;7.20;99.90;;;;;;5058215;28;20032;-77
2023/12/18 06:05:10;;;;;;;48.28;30.92;;;7.20;99.90;;;;;;5075368;27;20043;-79
2023/12/18 06:07:37;;;;;;;45.15;29.27;;;7.10;99.90;;;;;;5075810;28;20043;-73
2023/12/18 06:10:03;;;;;;;52.42;33.67;;;7.10;99.90;;;;;;5057710;28;20020;-79
2023/12/18 06:12:30;;;;;;;49.00;30.80;;;7.20;99.90;;;;;;5072300;28;20032;-77
2023/12/18 06:14:56;;;;;;;45.60;30.45;;;7.10;99.90;;;;;;5092361;27;20082;-77
2023/12/18 06:17:23;;;;;;;47.72;30.20;;;7.20;99.90;;;;;;5075018;27;20290;-75
2023/12/18 06:19:49;;;;;;;49.53;30.92;;;7.20;99.90;;;;;;5095022;27;20462;-77
2023/12/18 06:22:15;;;;;;;49.35;32.30;;;7.10;99.90;;;;;;5074938;27;20020;-75
2023/12/18 06:24:42;;;;;;;47.38;31.08;;;7.20;99.90;;;;;;5075039;28;20417;-73
2023/12/18 06:27:09;;;;;;;50.75;29.25;;;7.10;99.90;;;;;;5075038;28;20066;-78
2023/12/18 06:29:35;;;;;;;49.58;33.17;;;7.20;99.90;;;;;;5076464;27;20505;-77
2023/12/18 06:32:01;;;;;;;53.70;33.67;;;7.20;99.90;;;;;;5076339;27;20751;-78
2023/12/18 06:34:27;;;;;;;56.03;34.00;;;7.20;99.90;;;;;;5073573;27;20036;-75
2023/12/18 06:36:54;;;;;;;51.63;32.88;;;7.10;99.90;;;;;;5060794;27;20043;-72
2023/12/18 06:39:20;;;;;;;45.40;30.58;;;7.10;99.90;;;;;;5057170;27;20031;-78
2023/12/18 06:41:46;;;;;;;54.40;34.72;;;7.20;99.90;;;;;;5056122;27;20105;-77
2023/12/18 06:44:12;;;;;;;50.22;32.72;;;7.20;99.90;;;;;;5071653;27;20039;-78
2023/12/18 06:46:39;;;;;;;60.50;34.33;;;7.10;99.90;;;;;;5074313;27;20031;-77
2023/12/18 06:49:05;;;;;;;46.40;30.20;;;7.20;99.90;;;;;;5094373;27;20378;-79
2023/12/18 06:51:31;;;;;;;48.10;30.55;;;7.10;99.90;;;;;;5072744;28;20118;-77
2023/12/18 06:53:58;;;;;;;50.85;32.92;;;7.10;99.90;;;;;;5072372;27;20042;-78
2023/12/18 06:56:24;;;;;;;53.00;32.55;;;7.20;99.90;;;;;;5071635;28;20024;-78
2023/12/18 06:58:50;;;;;;;47.63;29.85;;;7.20;99.90;;;;;;5055142;27;20036;-74
2023/12/18 07:01:18;;;;;;;49.75;31.67;;;7.20;99.90;;;;;;5091741;27;20031;-75
2023/12/18 07:03:44;;;;;;;54.45;34.90;;;7.20;99.90;;;;;;5057587;27;20035;-78
2023/12/18 07:06:11;;;;;;;50.30;32.80;;;7.10;99.90;;;;;;5055362;27;20028;-74
2023/12/18 07:08:37;;;;;;;56.22;32.42;;;7.20;99.90;;;;;;5090080;27;20035;-76
2023/12/18 07:11:04;;;;;;;56.95;35.80;;;7.20;99.90;;;;;;5073097;28;20038;-77
2023/12/18 07:13:30;;;;;;;50.60;32.28;;;7.20;99.90;;;;;;5072981;28;20024;-76
2023/12/18 07:15:56;;;;;;;47.35;30.60;;;7.20;99.90;;;;;;5040123;28;20031;-76
2023/12/18 07:18:22;;;;;;;57.30;34.42;;;7.20;99.90;;;;;;5073740;28;20032;-80
2023/12/18 07:20:49;;;;;;;57.28;33.67;;;7.20;99.90;;;;;;5072049;27;20433;-79
2023/12/18 07:23:15;;;;;;;44.92;27.92;;;7.20;99.90;;;;;;5071705;28;20042;-78
2023/12/18 07:25:42;;;;;;;42.08;29.20;;;7.20;99.90;;;;;;5072418;27;20028;-77
2023/12/18 07:28:09;;;;;;;56.42;32.88;;;7.20;99.90;;;;;;5086868;27;20906;-80
2023/12/18 07:30:39;;;;;;;52.88;30.75;;;7.20;99.90;;;;;;5055462;27;20034;-75
2023/12/18 07:33:05;;;;;;;45.85;28.52;;;7.30;99.90;;;;;;5038820;27;20040;-78
2023/12/18 07:35:32;;;;;;;56.65;32.05;;;7.20;99.90;;;;;;5074199;27;20480;-77
2023/12/18 07:37:58;;;;;;;53.20;33.10;;;7.30;99.90;;;;;;5054722;27;20051;-78
2023/12/18 07:40:24;;;;;;;58.08;34.92;;;7.30;99.90;;;;;;5092980;27;20032;-73
2023/12/18 07:42:50;;;;;;;53.10;31.55;;;7.30;99.90;;;;;;5087810;27;20039;-76
2023/12/18 07:45:18;;;;;;;44.47;29.15;;;7.30;99.90;;;;;;5041616;27;20189;-75
2023/12/18 07:47:44;;;;;;;51.47;30.05;;;7.30;99.90;;;;;;5054526;27;20032;-80
2023/12/18 07:50:11;;;;;;;58.40;35.30;;;7.40;99.90;;;;;;5074932;27;20473;-74
2023/12/18 07:52:37;;;;;;;66.65;36.60;;;7.40;99.90;;;;;;5041404;28;20867;-80
2023/12/18 07:55:04;;;;;;;57.60;34.25;;;7.30;99.90;;;;;;5058093;28;20032;-79
2023/12/18 07:57:31;;;;;;;52.38;32.70;;;7.40;99.90;;;;;;5054297;28;20035;-76
2023/12/18 07:59:57;;;;;;;57.55;34.45;;;7.30;99.90;;;;;;5057354;27;20871;-73
2023/12/18 08:02:24;;;;;;;56.85;33.95;;;7.40;99.90;;;;;;5089617;27;20054;-79
2023/12/18 08:04:51;;;;;;;63.13;35.65;;;7.40;99.90;;;;;;5056096;28;20035;-77
2023/12/18 08:07:17;;;;;;;55.20;32.17;;;7.40;99.90;;;;;;5069378;28;21000;-78
2023/12/18 08:09:44;;;;;;;53.92;33.70;;;7.40;99.90;;;;;;5073964;27;20517;-75
2023/12/18 08:12:11;;;;;;;60.42;32.67;;;7.40;99.90;;;;;;5056793;28;20422;-79
2023/12/18 08:14:37;;;;;;;47.15;30.60;;;7.40;99.90;;;;;;5068391;28;20041;-80
2023/12/18 08:17:03;;;;;;;48.28;28.90;;;7.40;99.90;;;;;;5054738;28;20039;-76
2023/12/18 08:19:30;;;;;;;47.63;30.98;;;7.40;99.90;;;;;;5087736;27;20040;-75
2023/12/18 08:21:57;;;;;;;52.08;30.55;;;7.50;99.90;;;;;;5089107;27;20032;-74
2023/12/18 08:24:23;;;;;;;54.38;31.48;;;7.40;99.90;;;;;;5072958;28;20043;-74
2023/12/18 08:26:49;;;;;;;53.88;32.13;;;7.50;99.90;;;;;;5071111;27;20491;-75
2023/12/18 08:29:16;;;;;;;51.17;31.33;;;7.50;99.90;;;;;;5089275;27;20482;-75
2023/12/18 08:31:42;;;;;;;43.58;28.52;;;7.50;99.90;;;;;;5073501;28;20035;-75
2023/12/18 08:34:09;;;;;;;54.15;33.13;;;7.50;99.90;;;;;;5056321;28;20039;-75
2023/12/18 08:36:36;;;;;;;50.63;32.10;;;7.60;99.90;;;;;;5052012;28;20044;-73
2023/12/18 08:39:03;;;;;;;43.83;29.25;;;7.50;99.90;;;;;;5071266;28;20038;-75
2023/12/18 08:41:30;;;;;;;59.22;34.67;;;7.60;99.90;;;;;;5069492;27;20046;-74
2023/12/18 08:43:56;;;;;;;63.08;33.78;;;7.60;99.90;;;;;;5055910;28;20520;-75
2023/12/18 08:46:24;;;;;;;44.22;29.25;;;7.60;99.90;;;;;;5087586;28;20047;-75
2023/12/18 08:48:50;;;;;;;49.67;30.75;;;7.70;99.90;;;;;;5071886;28;20035;-76
2023/12/18 08:51:16;;;;;;;51.55;32.05;;;7.70;99.90;;;;;;5071324;28;20026;-74
2023/12/18 08:53:43;;;;;;;52.88;32.60;;;7.60;99.90;;;;;;5089408;28;20019;-76
2023/12/18 08:56:10;;;;;;;46.55;30.80;;;7.70;99.90;;;;;;5087867;28;20039;-76
2023/12/18 08:58:39;;;;;;;52.72;33.63;;;7.70;99.90;;;;;;5054685;28;20042;-76
2023/12/18 09:01:06;;;;;;;52.80;31.67;;;7.70;99.90;;;;;;5089142;28;20035;-79
2023/12/18 09:03:35;;;;;;;46.80;29.92;;;7.70;99.90;;;;;;5052136;28;20028;-74
2023/12/18 09:06:02;;;;;;;51.38;31.48;;;7.70;99.90;;;;;;5086623;28;20375;-76
2023/12/18 09:08:32;;;;;;;55.70;30.45;;;7.70;99.90;;;;;;5061656;28;20386;-80
2023/12/18 09:10:58;;;;;;;47.78;30.20;;;7.80;99.90;;;;;;5077870;28;20032;-76
2023/12/18 09:13:25;;;;;;;51.63;31.23;;;7.80;99.90;;;;;;5076340;28;20035;-78
2023/12/18 09:15:51;;;;;;;53.95;30.83;;;7.80;99.90;;;;;;5075622;28;20042;-77
2023/12/18 09:18:17;;;;;;;49.47;29.42;;;7.80;99.90;;;;;;5059667;28;20040;-78
2023/12/18 09:20:43;;;;;;;42.97;28.17;;;7.90;99.90;;;;;;5095512;28;20581;-80
2023/12/18 09:23:10;;;;;;;49.47;30.75;;;7.90;99.90;;;;;;5059564;28;20031;-77
2023/12/18 09:25:36;;;;;;;45.45;29.77;;;7.90;99.90;;;;;;5062248;28;20039;-78
2023/12/18 09:28:03;;;;;;;53.25;31.73;;;7.90;99.90;;;;;;5048020;28;20572;-77
2023/12/18 09:30:29;;;;;;;48.75;30.60;;;7.90;99.90;;;;;;5080340;28;20030;-78
2023/12/18 09:32:56;;;;;;;46.50;31.73;;;7.90;99.90;;;;;;5064546;28;20036;-80
2023/12/18 09:35:22;;;;;;;49.13;31.13;;;7.90;99.90;;;;;;5045322;27;20031;-79
2023/12/18 09:37:48;;;;;;;46.00;30.60;;;7.90;99.90;;;;;;5061811;28;20032;-80
2023/12/18 09:40:15;;;;;;;53.60;31.30;;;7.90;99.90;;;;;;5064328;28;20039;-80
2023/12/18 09:42:41;;;;;;;53.35;29.83;;;8.00;99.90;;;;;;5080984;28;20040;-80
2023/12/18 09:45:09;;;;;;;52.17;29.25;;;8.00;99.90;;;;;;5063792;28;20406;-80
2023/12/18 09:47:35;;;;;;;49.10;30.52;;;8.00;99.90;;;;;;5109816;27;20409;-79
2023/12/18 09:50:01;;;;;;;45.17;29.10;;;8.10;99.90;;;;;;5098528;27;20360;-79
2023/12/18 09:52:31;;;;;;;44.88;29.00;;;8.10;99.90;;;;;;5095945;27;20500;-80
2023/12/18 09:55:01;;;;;;;46.65;29.33;;;8.10;99.90;;;;;;5067333;27;20028;-73
2023/12/18 09:57:30;;;;;;;49.10;30.60;;;8.20;99.90;;;;;;5101768;27;20039;-80
2023/12/18 09:59:57;;;;;;;46.72;27.98;;;8.20;99.90;;;;;;5063662;28;21236;-74
2023/12/18 10:02:24;;;;;;;47.40;28.70;;;8.30;99.90;;;;;;5080137;27;20031;-73
2023/12/18 10:04:51;;;;;;;44.35;28.02;;;8.30;99.90;;;;;;5079940;28;20039;-75
2023/12/18 10:07:17;;;;;;;43.90;27.65;;;8.30;99.90;;;;;;5097516;27;20028;-78
2023/12/18 10:09:46;;;;;;;47.83;30.15;;;8.40;99.90;;;;;;5098496;27;20402;-80
2023/12/18 10:12:13;;;;;;;43.65;27.92;;;8.40;99.90;;;;;;5048137;28;20395;-78
2023/12/18 10:14:39;;;;;;;46.20;28.92;;;8.40;99.90;;;;;;5078579;28;20050;-80
2023/12/18 10:17:06;;;;;;;41.53;26.63;;;8.40;99.90;;;;;;5077859;28;20036;-78
2023/12/18 10:19:32;;;;;;;42.38;26.25;;;8.40;99.90;;;;;;5079388;27;20027;-80
2023/12/18 10:21:59;;;;;;;43.65;27.45;;;8.50;99.90;;;;;;5062643;28;20038;-72
2023/12/18 10:24:26;;;;;;;44.67;29.50;;;8.50;99.90;;;;;;5078552;28;20509;-76
2023/12/18 10:26:52;;;;;;;42.80;28.10;;;8.50;99.90;;;;;;5062748;28;20530;-78
2023/12/18 10:29:18;;;;;;;43.03;29.63;;;8.50;99.90;;;;;;5063853;28;20050;-79
2023/12/18 10:31:45;;;;;;;45.35;29.58;;;8.60;99.90;;;;;;5098058;27;20062;-80
2023/12/18 10:34:11;;;;;;;43.83;28.80;;;8.60;99.90;;;;;;5075107;28;20038;-76
2023/12/18 10:36:41;;;;;;;46.13;30.55;;;8.60;99.90;;;;;;5076336;28;20039;-77
2023/12/18 10:39:09;;;;;;;46.67;29.02;;;8.70;99.90;;;;;;5064355;28;20043;-76
2023/12/18 10:41:40;;;;;;;41.15;26.00;;;8.70;99.90;;;;;;5079355;28;20027;-79
2023/12/18 10:44:08;;;;;;;51.88;29.58;;;8.70;99.90;;;;;;5078624;27;20064;-76
2023/12/18 10:46:34;;;;;;;42.60;29.65;;;8.70;99.90;;;;;;5060519;28;20038;-78
2023/12/18 10:49:02;;;;;;;38.67;26.80;;;8.70;99.90;;;;;;5063864;28;20240;-76
2023/12/18 10:51:33;;;;;;;39.33;27.10;;;8.70;99.90;;;;;;5076707;28;20028;-79
2023/12/18 10:54:02;;;;;;;42.05;25.35;;;8.80;99.90;;;;;;5096983;27;20036;-80
2023/12/18 10:56:30;;;;;;;42.17;27.25;;;8.80;99.90;;;;;;5060064;28;20028;-76
2023/12/18 10:58:59;;;;;;;43.72;28.83;;;8.80;99.90;;;;;;5065410;28;20039;-78
2023/12/18 11:01:27;;;;;;;42.83;29.50;;;8.80;99.90;;;;;;5079054;27;20047;-75
2023/12/18 11:03:54;;;;;;;44.97;29.60;;;8.90;99.90;;;;;;5092370;27;20544;-77
2023/12/18 11:06:21;;;;;;;43.90;28.67;;;8.90;99.90;;;;;;5077757;28;20494;-74
2023/12/18 11:08:48;;;;;;;42.20;28.65;;;8.90;99.90;;;;;;5078274;28;20027;-78
2023/12/18 11:11:16;;;;;;;43.83;28.98;;;8.90;99.90;;;;;;5058281;28;20035;-79
2023/12/18 11:14:34;;;;;;;39.55;28.42;;;9.00;99.90;;;;;;5077039;28;20034;-79
2023/12/18 11:17:18;;;;;;;39.30;27.13;;;9.00;99.90;;;;;;5048417;27;20052;-75
2023/12/18 11:20:22;;;;;;;44.38;27.85;;;9.10;99.90;;;;;;5063334;27;20521;-75
2023/12/18 11:22:53;;;;;;;38.92;24.88;;;9.10;99.90;;;;;;5075526;28;20027;-77
2023/12/18 11:25:20;;;;;;;40.03;26.48;;;9.10;99.90;;;;;;5090628;27;20042;-77
2023/12/18 11:27:52;;;;;;;39.28;27.15;;;9.10;99.90;;;;;;5045031;28;20043;-80
2023/12/18 11:30:29;;;;;;;34.90;26.35;;;9.10;99.90;;;;;;5074966;28;20485;-77
2023/12/18 11:33:10;;;;;;;35.90;26.40;;;9.10;99.90;;;;;;5093280;27;20040;-78
2023/12/18 11:35:38;;;;;;;37.65;28.25;;;9.00;99.90;;;;;;5062490;28;20533;-80
2023/12/18 11:38:11;;;;;;;39.22;27.20;;;9.00;99.90;;;;;;5092024;28;20035;-72
2023/12/18 11:40:45;;;;;;;46.22;29.38;;;9.00;99.90;;;;;;5097957;27;20035;-78
2023/12/18 11:43:14;;;;;;;43.00;27.45;;;8.90;99.90;;;;;;5075761;28;20513;-77
2023/12/18 11:45:42;;;;;;;43.20;27.77;;;8.90;99.90;;;;;;5056897;28;20052;-76
2023/12/18 11:48:14;;;;;;;42.38;29.85;;;8.90;99.90;;;;;;5110310;27;20028;-76
2023/12/18 11:50:41;;;;;;;41.08;28.00;;;8.90;99.90;;;;;;5099983;27;20054;-75
2023/12/18 11:53:18;;;;;;;39.47;26.73;;;8.90;99.90;;;;;;5078204;28;21521;-75
2023/12/18 11:55:52;;;;;;;38.25;27.13;;;8.90;99.90;;;;;;5061743;28;20028;-76
2023/12/18 11:58:26;;;;;;;46.45;28.60;;;9.00;99.90;;;;;;5091871;28;20054;-76
2023/12/18 12:00:55;;;;;;;43.17;28.60;;;9.00;99.90;;;;;;5076525;28;20043;-77
2023/12/18 12:03:22;;;;;;;41.20;26.67;;;9.00;99.90;;;;;;5077304;28;20402;-77
2023/12/18 12:05:49;;;;;;;39.50;26.45;;;9.00;99.90;;;;;;5075571;28;20039;-76
2023/12/18 12:08:15;;;;;;;38.58;27.40;;;9.00;99.90;;;;;;5059802;28;20035;-80
2023/12/18 12:10:47;;;;;;;38.13;24.50;;;9.00;99.90;;;;;;5095987;28;20426;-80
2023/12/18 12:13:22;;;;;;;35.47;24.58;;;9.00;99.90;;;;;;5094939;27;20031;-78
2023/12/18 12:16:00;;;;;;;39.83;25.88;;;9.10;99.90;;;;;;5058447;28;20031;-76
2023/12/18 12:18:54;;;;;;;41.67;27.48;;;9.10;99.90;;;;;;5095569;27;20035;-75
2023/12/18 12:21:21;;;;;;;39.63;25.98;;;9.20;99.90;;;;;;5059633;28;20024;-74
2023/12/18 12:23:47;;;;;;;52.42;29.15;;;9.30;99.90;;;;;;5060151;28;20027;-78
2023/12/18 12:26:17;;;;;;;37.22;26.45;;;9.30;99.90;;;;;;5094685;28;20040;-76
2023/12/18 12:28:44;;;;;;;45.85;27.70;;;9.40;99.90;;;;;;5094341;28;20581;-74
2023/12/18 12:31:10;;;;;;;39.55;27.98;;;9.40;99.90;;;;;;5092784;27;20032;-77
2023/12/18 12:33:44;;;;;;;40.78;25.67;;;9.40;99.90;;;;;;5076438;28;20038;-75
2023/12/18 12:36:15;;;;;;;41.58;25.30;;;9.40;99.90;;;;;;5076630;28;20515;-78